createdAt,value
2018-11-22T00:01:46.577Z,0.40
2018-11-22T00:04:16.525Z,0.40
2018-11-22T00:06:46.461Z,0.40
2018-11-22T00:09:16.521Z,0.40
2018-11-22T00:11:46.501Z,0.40
2018-11-22T00:14:16.502Z,0.40
2018-11-22T00:16:47.219Z,0.40
2018-11-22T00:19:17.200Z,0.40
2018-11-22T00:21:47.220Z,0.40
2018-11-22T00:24:17.393Z,0.40
2018-11-22T00:26:47.640Z,0.40
2018-11-22T00:29:17.650Z,0.40
2018-11-22T00:31:47.565Z,0.40
2018-11-22T00:34:17.631Z,0.40
2018-11-22T00:36:47.843Z,0.40
2018-11-22T00:39:18.076Z,0.40
2018-11-22T00:41:48.171Z,0.40
2018-11-22T00:44:18.162Z,0.40
2018-11-22T00:46:48.102Z,0.40
2018-11-22T00:49:18.131Z,0.40
2018-11-22T00:51:48.072Z,0.40
2018-11-22T00:54:18.101Z,0.40
2018-11-22T00:56:48.054Z,0.40
2018-11-22T00:59:18.136Z,0.40
2018-11-22T01:01:48.173Z,0.30
2018-11-22T01:04:18.200Z,0.30
2018-11-22T01:06:49.568Z,0.30
2018-11-22T01:09:19.778Z,0.30
2018-11-22T01:11:49.719Z,0.30
2018-11-22T01:14:19.689Z,0.30
2018-11-22T01:16:49.902Z,0.30
2018-11-22T01:19:20.014Z,0.30
2018-11-22T01:21:50.161Z,0.40
2018-11-22T01:24:20.233Z,0.30
2018-11-22T01:26:50.407Z,0.30
2018-11-22T01:29:20.388Z,0.30
2018-11-22T01:31:50.539Z,0.30
2018-11-22T01:34:20.531Z,0.30
2018-11-22T01:36:50.525Z,0.30
2018-11-22T01:39:20.517Z,0.30
2018-11-22T01:41:50.484Z,0.30
2018-11-22T01:44:20.586Z,0.30
2018-11-22T01:46:50.512Z,0.30
2018-11-22T01:49:20.478Z,0.30
2018-11-22T01:51:50.652Z,0.30
2018-11-22T01:54:20.737Z,0.30
2018-11-22T01:56:50.712Z,0.30
2018-11-22T01:59:20.828Z,0.30
2018-11-22T02:01:50.818Z,0.30
2018-11-22T02:04:20.781Z,0.30
2018-11-22T02:06:50.979Z,0.30
2018-11-22T02:09:20.945Z,0.30
2018-11-22T02:11:51.612Z,0.20
2018-11-22T02:14:21.640Z,0.30
2018-11-22T02:16:51.803Z,0.30
2018-11-22T02:19:21.886Z,0.30
2018-11-22T02:21:51.846Z,0.30
2018-11-22T02:24:21.856Z,0.30
2018-11-22T02:26:51.943Z,0.30
2018-11-22T02:29:21.956Z,0.30
2018-11-22T02:31:52.721Z,0.30
2018-11-22T02:34:22.645Z,0.30
2018-11-22T02:36:52.697Z,0.30
2018-11-22T02:39:22.696Z,0.30
2018-11-22T02:41:52.639Z,0.30
2018-11-22T02:44:22.763Z,0.30
2018-11-22T02:46:52.801Z,0.30
2018-11-22T02:49:22.911Z,0.30
2018-11-22T02:51:52.885Z,0.30
2018-11-22T02:54:22.831Z,0.30
2018-11-22T02:56:52.791Z,0.30
2018-11-22T02:59:23.271Z,0.30
2018-11-22T03:01:53.231Z,0.30
2018-11-22T03:04:23.183Z,0.30
2018-11-22T03:06:53.334Z,0.20
2018-11-22T03:09:23.335Z,0.20
2018-11-22T03:11:53.475Z,0.20
2018-11-22T03:14:23.474Z,0.30
2018-11-22T03:16:53.781Z,0.30
2018-11-22T03:19:23.961Z,0.30
2018-11-22T03:21:54.512Z,0.30
2018-11-22T03:24:24.595Z,0.20
2018-11-22T03:26:54.751Z,0.20
2018-11-22T03:29:25.031Z,0.20
2018-11-22T03:31:54.974Z,0.20
2018-11-22T03:34:25.121Z,0.20
2018-11-22T03:36:55.226Z,0.20
2018-11-22T03:39:25.223Z,0.20
2018-11-22T03:41:55.430Z,0.20
2018-11-22T03:44:25.515Z,0.20
2018-11-22T03:46:55.584Z,0.20
2018-11-22T03:49:25.685Z,0.20
2018-11-22T03:51:55.634Z,0.20
2018-11-22T03:54:25.748Z,0.20
2018-11-22T03:56:55.769Z,0.20
2018-11-22T03:59:25.845Z,0.20
2018-11-22T04:01:55.951Z,0.20
2018-11-22T04:04:26.197Z,0.30
2018-11-22T04:06:56.156Z,0.30
2018-11-22T04:09:26.227Z,0.30
2018-11-22T04:11:56.556Z,0.30
2018-11-22T04:14:26.120Z,0.30
2018-11-22T04:16:55.559Z,0.30
2018-11-22T04:19:25.787Z,0.30
2018-11-22T04:21:55.336Z,0.30
2018-11-22T04:24:25.023Z,0.30
2018-11-22T04:26:54.708Z,0.30
2018-11-22T04:29:24.223Z,0.30
2018-11-22T04:31:53.697Z,0.20
2018-11-22T04:34:23.320Z,0.30
2018-11-22T04:36:52.803Z,0.30
2018-11-22T04:39:22.365Z,0.30
2018-11-22T04:41:51.834Z,0.20
2018-11-22T04:44:21.286Z,0.20
2018-11-22T04:46:50.849Z,0.30
2018-11-22T04:49:20.337Z,0.30
2018-11-22T04:51:49.779Z,0.30
2018-11-22T04:54:19.287Z,0.30
2018-11-22T04:56:48.791Z,0.30
2018-11-22T04:59:18.272Z,0.30
2018-11-22T05:01:47.970Z,0.30
2018-11-22T05:04:17.539Z,0.30
2018-11-22T05:06:47.095Z,0.30
2018-11-22T05:09:16.584Z,0.30
2018-11-22T05:11:46.187Z,0.20
2018-11-22T05:14:15.660Z,0.20
2018-11-22T05:16:45.264Z,0.20
2018-11-22T05:19:14.790Z,0.20
2018-11-22T05:21:44.531Z,0.30
2018-11-22T05:24:14.035Z,0.20
2018-11-22T05:26:43.496Z,0.30
2018-11-22T05:29:13.008Z,0.30
2018-11-22T05:31:42.557Z,0.30
2018-11-22T05:34:12.331Z,0.30
2018-11-22T05:36:41.937Z,0.30
2018-11-22T05:39:11.897Z,0.20
2018-11-22T05:41:43.829Z,0.30
2018-11-22T05:44:11.226Z,0.20
2018-11-22T05:46:40.866Z,0.20
2018-11-22T05:49:10.524Z,0.20
2018-11-22T05:51:39.991Z,0.20
2018-11-22T05:54:09.459Z,0.20
2018-11-22T05:56:39.044Z,0.20
2018-11-22T05:59:08.575Z,0.30
2018-11-22T06:01:38.046Z,0.20
2018-11-22T06:04:07.867Z,0.20
2018-11-22T06:06:37.579Z,0.20
2018-11-22T06:09:10.398Z,0.20
2018-11-22T06:11:40.632Z,0.30
2018-11-22T06:14:11.754Z,0.30
2018-11-22T06:16:41.843Z,0.30
2018-11-22T06:19:11.780Z,0.30
2018-11-22T06:21:41.808Z,0.30
2018-11-22T06:24:11.770Z,0.30
2018-11-22T06:26:41.809Z,0.20
2018-11-22T06:29:12.052Z,0.30
2018-11-22T06:31:41.623Z,0.30
2018-11-22T06:34:12.057Z,0.20
2018-11-22T06:36:42.069Z,0.20
2018-11-22T06:39:12.578Z,0.20
2018-11-22T06:41:42.670Z,0.20
2018-11-22T06:44:12.685Z,0.20
2018-11-22T06:46:42.920Z,0.20
2018-11-22T06:49:12.888Z,0.20
2018-11-22T06:51:42.885Z,0.20
2018-11-22T06:54:12.896Z,0.20
2018-11-22T06:56:42.969Z,0.20
2018-11-22T06:59:13.069Z,0.20
2018-11-22T07:01:43.117Z,0.20
2018-11-22T07:04:13.077Z,0.20
2018-11-22T07:06:43.127Z,0.20
2018-11-22T07:09:13.104Z,0.20
2018-11-22T07:11:43.209Z,0.20
2018-11-22T07:14:13.137Z,0.10
2018-11-22T07:16:43.069Z,0.20
2018-11-22T07:19:13.293Z,0.20
2018-11-22T07:21:43.314Z,0.20
2018-11-22T07:24:13.309Z,0.20
2018-11-22T07:26:43.345Z,0.20
2018-11-22T07:29:40.218Z,0.30
2018-11-22T07:32:09.678Z,0.20
2018-11-22T07:34:39.198Z,0.20
2018-11-22T07:37:08.777Z,0.20
2018-11-22T07:39:38.752Z,0.20
2018-11-22T07:42:09.221Z,0.30
2018-11-22T07:45:31.578Z,0.30
2018-11-22T07:48:03.015Z,0.30
2018-11-22T07:50:33.514Z,0.30
2018-11-22T07:53:04.076Z,0.30
2018-11-22T07:55:34.774Z,0.20
2018-11-22T07:58:05.391Z,0.30
2018-11-22T08:00:37.520Z,0.20
2018-11-22T08:03:08.195Z,0.30
2018-11-22T08:05:40.397Z,0.30
2018-11-22T08:08:10.906Z,0.30
2018-11-22T08:10:41.318Z,0.30
2018-11-22T08:13:12.005Z,0.30
2018-11-22T08:15:42.746Z,0.30
2018-11-22T08:18:13.097Z,0.30
2018-11-22T08:20:43.133Z,0.30
2018-11-22T08:23:13.181Z,0.30
2018-11-22T08:25:43.249Z,0.30
2018-11-22T08:28:13.284Z,0.30
2018-11-22T08:30:43.234Z,0.40
2018-11-22T08:33:13.967Z,0.40
2018-11-22T08:35:43.938Z,0.40
2018-11-22T08:38:14.654Z,0.40
2018-11-22T08:40:44.724Z,0.50
2018-11-22T08:43:14.857Z,0.40
2018-11-22T08:45:44.897Z,0.40
2018-11-22T08:48:15.564Z,0.40
2018-11-22T08:50:45.725Z,0.50
2018-11-22T08:53:15.740Z,0.40
2018-11-22T08:55:45.705Z,0.40
2018-11-22T08:58:15.758Z,0.40
2018-11-22T09:00:45.764Z,0.40
2018-11-22T09:03:15.721Z,0.50
2018-11-22T09:05:45.704Z,0.40
2018-11-22T09:08:15.733Z,0.50
2018-11-22T09:10:45.957Z,0.50
2018-11-22T09:13:15.980Z,0.50
2018-11-22T09:15:46.090Z,0.50
2018-11-22T09:18:16.273Z,0.60
2018-11-22T09:20:46.500Z,0.60
2018-11-22T09:23:16.743Z,0.60
2018-11-22T09:25:46.797Z,0.60
2018-11-22T09:28:16.724Z,0.60
2018-11-22T09:30:46.817Z,0.60
2018-11-22T09:33:17.154Z,0.60
2018-11-22T09:35:47.185Z,0.60
2018-11-22T09:38:17.276Z,0.50
2018-11-22T09:40:47.249Z,0.50
2018-11-22T09:43:17.219Z,0.50
2018-11-22T09:45:47.742Z,0.50
2018-11-22T09:48:17.799Z,0.60
2018-11-22T09:50:47.782Z,0.60
2018-11-22T09:53:17.870Z,0.60
2018-11-22T09:55:47.959Z,0.60
2018-11-22T09:58:17.847Z,0.60
2018-11-22T10:00:47.964Z,0.60
2018-11-22T10:03:18.006Z,0.60
2018-11-22T10:05:48.079Z,0.70
2018-11-22T10:08:18.305Z,0.70
2018-11-22T10:10:50.575Z,0.70
2018-11-22T10:13:20.554Z,0.70
2018-11-22T10:15:50.655Z,0.70
2018-11-22T10:18:20.749Z,0.80
2018-11-22T10:20:50.815Z,0.80
2018-11-22T10:23:21.742Z,0.80
2018-11-22T10:25:51.710Z,0.80
2018-11-22T10:28:21.897Z,0.80
2018-11-22T10:30:52.025Z,0.80
2018-11-22T10:33:22.126Z,0.80
2018-11-22T10:35:52.263Z,0.80
2018-11-22T10:38:22.400Z,0.80
2018-11-22T10:40:52.443Z,0.90
2018-11-22T10:43:22.373Z,0.90
2018-11-22T10:45:52.554Z,0.90
2018-11-22T10:48:22.656Z,0.90
2018-11-22T10:50:52.701Z,1.00
2018-11-22T10:53:22.948Z,0.90
2018-11-22T12:16:10.369Z,1.10
2018-11-22T12:18:38.885Z,1.10
2018-11-22T12:21:07.435Z,1.20
2018-11-22T12:23:36.231Z,1.20
2018-11-22T12:26:05.115Z,1.20
2018-11-22T12:28:33.725Z,1.20
2018-11-22T12:31:06.489Z,1.30
2018-11-22T12:33:37.315Z,1.30
2018-11-22T12:36:11.875Z,1.30
2018-11-22T12:38:40.745Z,1.20
2018-11-22T12:41:09.440Z,1.20
2018-11-22T12:43:37.963Z,1.20
2018-11-22T12:46:06.707Z,1.10
2018-11-22T12:48:35.407Z,1.10
2018-11-22T12:51:03.948Z,1.10
2018-11-22T12:53:32.439Z,1.10
2018-11-22T12:56:00.977Z,1.00
2018-11-22T12:58:29.487Z,1.00
2018-11-22T13:00:59.037Z,1.00
2018-11-22T13:03:27.717Z,1.00
2018-11-22T13:05:56.205Z,1.00
2018-11-22T13:08:24.766Z,1.00
2018-11-22T13:10:53.304Z,1.10
2018-11-22T13:13:21.853Z,1.00
2018-11-22T13:15:50.474Z,1.10
2018-11-22T13:18:19.027Z,1.10
2018-11-22T13:20:47.569Z,1.10
2018-11-22T13:23:16.139Z,1.00
2018-11-22T13:25:44.668Z,1.10
2018-11-22T13:28:13.171Z,1.10
2018-11-22T13:30:41.891Z,1.00
2018-11-22T13:33:10.387Z,1.00
2018-11-22T13:35:39.315Z,1.10
2018-11-22T13:38:07.811Z,1.00
2018-11-22T13:40:36.330Z,1.00
2018-11-22T13:43:05.611Z,1.00
2018-11-22T13:45:34.129Z,1.00
2018-11-22T13:48:02.605Z,1.00
2018-11-22T13:50:32.341Z,0.90
2018-11-22T13:53:02.471Z,0.90
2018-11-22T13:55:31.007Z,1.00
2018-11-22T13:58:00.564Z,0.90
2018-11-22T14:00:30.447Z,0.90
2018-11-22T14:03:05.505Z,0.90
2018-11-22T14:05:34.018Z,0.90
2018-11-22T14:08:02.578Z,0.90
2018-11-22T14:10:31.209Z,0.90
2018-11-22T14:12:59.691Z,0.90
2018-11-22T14:15:29.836Z,0.80
2018-11-22T14:17:59.864Z,0.80
2018-11-22T14:20:30.792Z,0.80
2018-11-22T14:22:59.302Z,0.80
2018-11-22T14:25:27.973Z,0.80
2018-11-22T14:27:56.619Z,0.80
2018-11-22T14:30:26.971Z,0.80
2018-11-22T14:32:55.569Z,0.80
2018-11-22T14:35:25.295Z,0.80
2018-11-22T14:37:53.786Z,0.80
2018-11-22T14:40:23.997Z,0.80
2018-11-22T14:42:53.366Z,0.80
2018-11-22T14:45:23.103Z,0.80
2018-11-22T14:47:53.195Z,0.80
2018-11-22T14:50:24.332Z,0.80
2018-11-22T14:53:16.918Z,0.80
2018-11-22T14:55:45.541Z,0.80
2018-11-22T14:58:14.356Z,0.80
2018-11-22T15:00:42.969Z,0.80
2018-11-22T15:03:11.684Z,0.80
2018-11-22T15:05:40.192Z,0.80
2018-11-22T15:08:08.643Z,0.80
2018-11-22T15:10:37.120Z,0.80
2018-11-22T15:13:06.259Z,0.80
2018-11-22T15:15:34.968Z,0.80
2018-11-22T15:18:03.493Z,0.70
2018-11-22T15:20:32.123Z,0.70
2018-11-22T15:23:00.587Z,0.70
2018-11-22T15:25:30.140Z,0.70
2018-11-22T15:27:58.648Z,0.70
2018-11-22T15:30:28.524Z,0.70
2018-11-22T15:32:57.431Z,0.70
2018-11-22T15:35:27.511Z,0.70
2018-11-22T15:37:56.007Z,0.70
2018-11-22T15:40:25.383Z,0.70
2018-11-22T15:42:55.671Z,0.80
2018-11-22T15:45:25.850Z,0.70
2018-11-22T15:47:54.527Z,0.80
2018-11-22T15:50:24.426Z,0.80
2018-11-22T15:52:53.211Z,0.90
2018-11-22T15:55:22.160Z,0.90
2018-11-22T15:57:52.545Z,0.90
2018-11-22T16:00:25.322Z,0.90
2018-11-22T16:02:54.743Z,0.90
2018-11-22T16:05:24.319Z,0.90
2018-11-22T16:07:53.040Z,0.90
2018-11-22T16:10:26.749Z,0.80
2018-11-22T16:12:53.380Z,0.90
2018-11-22T16:15:30.494Z,0.90
2018-11-22T16:17:59.050Z,0.90
2018-11-22T16:20:27.515Z,0.90
2018-11-22T16:22:56.310Z,0.90
2018-11-22T16:25:24.872Z,0.90
2018-11-22T16:27:53.548Z,0.90
2018-11-22T16:30:38.922Z,1.00
2018-11-22T16:33:08.114Z,1.00
2018-11-22T16:35:37.275Z,1.00
2018-11-22T16:38:06.399Z,0.90
2018-11-22T16:40:34.980Z,1.00
2018-11-22T16:43:04.161Z,1.00
2018-11-22T16:45:35.915Z,1.00
2018-11-22T16:48:07.515Z,1.00
2018-11-22T16:50:37.362Z,1.00
2018-11-22T16:53:05.966Z,0.90
2018-11-22T16:55:35.243Z,0.90
2018-11-22T16:58:04.631Z,1.00
2018-11-22T17:00:35.484Z,1.00
2018-11-22T17:03:05.683Z,0.90
2018-11-22T17:05:34.694Z,0.90
2018-11-22T17:08:03.996Z,0.90
2018-11-22T17:10:32.991Z,0.90
2018-11-22T17:13:02.574Z,0.90
2018-11-22T17:15:33.561Z,0.90
2018-11-22T17:18:02.727Z,0.90
2018-11-22T17:20:32.314Z,0.90
2018-11-22T17:23:01.435Z,0.90
2018-11-22T17:25:31.402Z,0.90
2018-11-22T17:28:01.256Z,0.90
2018-11-22T17:30:31.532Z,0.90
2018-11-22T17:33:00.036Z,0.90
2018-11-22T17:35:29.343Z,0.90
2018-11-22T17:37:59.515Z,0.90
2018-11-22T17:40:30.622Z,0.90
2018-11-22T17:42:59.425Z,0.90
2018-11-22T17:45:31.355Z,0.90
2018-11-22T17:47:59.921Z,0.90
2018-11-22T17:50:30.305Z,0.90
2018-11-22T17:52:59.395Z,0.90
2018-11-22T17:55:28.659Z,1.00
2018-11-22T17:57:57.222Z,1.00
2018-11-22T18:00:27.124Z,1.00
2018-11-22T18:02:56.980Z,1.00
2018-11-22T18:05:27.233Z,1.00
2018-11-22T18:07:55.073Z,1.00
2018-11-22T18:10:25.113Z,1.00
2018-11-22T18:12:54.496Z,1.00
2018-11-22T18:15:23.616Z,1.00
2018-11-22T18:17:52.936Z,1.00
2018-11-22T18:20:22.694Z,1.00
2018-11-22T18:22:52.312Z,1.00
2018-11-22T18:25:22.224Z,1.00
2018-11-22T18:27:50.913Z,1.00
2018-11-22T18:30:22.980Z,1.00
2018-11-22T18:32:53.311Z,0.90
2018-11-22T18:35:21.804Z,0.90
2018-11-22T18:37:50.415Z,0.90
2018-11-22T18:40:21.213Z,0.90
2018-11-22T18:42:50.912Z,0.90
2018-11-22T18:45:24.842Z,0.90
2018-11-22T18:47:53.350Z,0.90
2018-11-22T18:50:23.256Z,0.90
2018-11-22T18:52:51.742Z,0.90
2018-11-22T18:55:20.255Z,0.90
2018-11-22T18:57:48.816Z,0.90
2018-11-22T19:00:20.016Z,0.90
2018-11-22T19:02:48.581Z,0.90
2018-11-22T19:05:17.921Z,0.90
2018-11-22T19:07:47.579Z,0.90
2018-11-22T19:10:20.182Z,0.90
2018-11-22T19:12:49.876Z,0.90
2018-11-22T19:15:19.997Z,0.90
2018-11-22T19:17:48.987Z,0.90
2018-11-22T19:20:20.270Z,0.90
2018-11-22T19:22:49.645Z,0.90
2018-11-22T19:25:18.720Z,0.90
2018-11-22T19:27:47.663Z,0.90
2018-11-22T19:30:25.310Z,0.90
2018-11-22T19:32:55.150Z,0.90
2018-11-22T19:35:25.256Z,0.90
2018-11-22T19:37:53.734Z,0.90
2018-11-22T19:40:30.154Z,0.90
2018-11-22T19:43:00.107Z,0.90
2018-11-22T19:45:30.162Z,0.90
2018-11-22T19:47:58.682Z,0.90
2018-11-22T19:50:28.739Z,0.90
2018-11-22T19:52:58.410Z,1.00
2018-11-22T19:55:28.240Z,1.00
2018-11-22T19:57:59.129Z,1.00
2018-11-22T20:00:28.205Z,0.90
2018-11-22T20:02:58.055Z,0.90
2018-11-22T20:05:27.591Z,0.90
2018-11-22T20:07:57.836Z,0.90
2018-11-22T20:10:30.736Z,0.90
2018-11-22T20:12:59.457Z,0.90
2018-11-22T20:15:28.410Z,0.90
2018-11-22T20:17:57.597Z,1.00
2018-11-22T20:20:26.787Z,0.90
2018-11-22T20:22:55.558Z,0.90
2018-11-22T20:25:24.673Z,0.90
2018-11-22T20:27:54.849Z,0.90
2018-11-22T20:30:25.220Z,0.90
2018-11-22T20:32:53.739Z,0.90
2018-11-22T20:35:22.994Z,0.90
2018-11-22T20:37:52.134Z,0.90
2018-11-22T20:40:22.017Z,0.90
2018-11-22T20:42:50.580Z,0.90
2018-11-22T20:45:20.419Z,0.90
2018-11-22T20:47:50.401Z,0.90
2018-11-22T20:50:20.555Z,0.90
2018-11-22T20:52:49.062Z,1.00
2018-11-22T20:55:22.685Z,0.90
2018-11-22T20:57:53.117Z,0.90
2018-11-22T21:00:23.170Z,0.90
2018-11-22T21:02:51.868Z,0.90
2018-11-22T21:05:21.259Z,0.90
2018-11-22T21:07:50.636Z,0.90
2018-11-22T21:10:20.551Z,0.90
2018-11-22T21:12:49.716Z,0.90
2018-11-22T21:15:22.635Z,1.00
2018-11-22T21:17:52.804Z,0.90
2018-11-22T21:20:23.199Z,0.90
2018-11-22T21:22:51.862Z,0.90
2018-11-22T21:25:21.087Z,0.90
2018-11-22T21:27:49.779Z,0.90
2018-11-22T21:30:29.701Z,0.90
2018-11-22T21:32:59.006Z,0.90
2018-11-22T21:35:27.637Z,0.90
2018-11-22T21:37:57.228Z,0.80
2018-11-22T21:40:26.498Z,0.90
2018-11-22T21:42:55.212Z,0.90
2018-11-22T21:45:24.927Z,0.80
2018-11-22T21:47:53.782Z,0.90
2018-11-22T21:50:23.812Z,0.90
2018-11-22T21:52:52.382Z,0.90
2018-11-22T21:55:22.409Z,0.90
2018-11-22T21:57:51.811Z,0.90
2018-11-22T22:00:23.958Z,0.90
2018-11-22T22:02:55.021Z,0.80
2018-11-22T22:05:23.761Z,0.80
2018-11-22T22:07:52.305Z,0.80
2018-11-22T22:10:20.916Z,0.80
2018-11-22T22:12:50.527Z,0.80
2018-11-22T22:15:20.691Z,0.80
2018-11-22T22:17:49.430Z,0.80
2018-11-22T22:20:34.020Z,0.80
2018-11-22T22:23:02.760Z,0.80
2018-11-22T22:25:31.631Z,0.80
2018-11-22T22:28:00.606Z,0.80
2018-11-22T22:30:31.543Z,0.80
2018-11-22T22:33:01.983Z,0.80
2018-11-22T22:35:30.680Z,0.90
2018-11-22T22:37:59.152Z,0.80
2018-11-22T22:40:28.676Z,0.80
2018-11-22T22:42:58.039Z,0.80
2018-11-22T22:45:27.699Z,0.80
2018-11-22T22:47:56.204Z,0.80
2018-11-22T22:50:26.073Z,0.80
2018-11-22T22:52:55.862Z,0.80
2018-11-22T22:55:24.988Z,0.80
2018-11-22T22:57:53.546Z,0.70
2018-11-22T23:00:29.313Z,0.80
2018-11-22T23:03:00.146Z,0.80
2018-11-22T23:05:29.573Z,0.80
2018-11-22T23:07:58.087Z,0.70
2018-11-22T23:10:26.877Z,0.80
2018-11-22T23:12:56.353Z,0.70
2018-11-22T23:15:25.856Z,0.70
2018-11-22T23:17:54.372Z,0.70
2018-11-22T23:20:25.371Z,0.70
2018-11-22T23:22:54.144Z,0.70
2018-11-22T23:25:23.534Z,0.70
2018-11-22T23:27:52.065Z,0.70
2018-11-22T23:30:36.470Z,0.70
2018-11-22T23:33:06.412Z,0.70
2018-11-22T23:35:34.932Z,0.70
2018-11-22T23:38:03.409Z,0.70
2018-11-22T23:40:32.794Z,0.70
2018-11-22T23:43:01.267Z,0.70
2018-11-22T23:45:30.954Z,0.80
2018-11-22T23:47:59.450Z,0.70
2018-11-22T23:50:29.332Z,0.70
2018-11-22T23:52:58.879Z,0.70
2018-11-22T23:55:27.511Z,0.70
2018-11-22T23:57:56.005Z,0.80
